sensor_id;sensor_type;location;lat;lon;timestamp;temperature;humidity
1175;DHT22;576;48.418;10.074;2023-04-15T00:01:12;22.60;52.90
1175;DHT22;576;48.418;10.074;2023-04-15T00:03:44;22.50;52.90
1175;DHT22;576;48.418;10.074;2023-04-15T00:06:13;22.50;53.00
1175;DHT22;576;48.418;10.074;2023-04-15T00:08:42;22.50;53.00
1175;DHT22;576;48.418;10.074;2023-04-15T00:11:10;22.50;53.00
1175;DHT22;576;48.418;10.074;2023-04-15T00:13:40;22.50;53.00
1175;DHT22;576;48.418;10.074;2023-04-15T00:16:08;22.50;53.00
1175;DHT22;576;48.418;10.074;2023-04-15T00:18:37;22.50;53.00
1175;DHT22;576;48.418;10.074;2023-04-15T00:21:05;22.50;53.00
1175;DHT22;576;48.418;10.074;2023-04-15T00:23:33;22.50;53.00
1175;DHT22;576;48.418;10.074;2023-04-15T00:26:02;22.50;53.00
1175;DHT22;576;48.418;10.074;2023-04-15T00:28:30;22.50;53.00
1175;DHT22;576;48.418;10.074;2023-04-15T00:31:00;22.50;53.00
1175;DHT22;576;48.418;10.074;2023-04-15T00:33:29;22.50;53.00
1175;DHT22;576;48.418;10.074;2023-04-15T00:35:57;22.50;53.00
1175;DHT22;576;48.418;10.074;2023-04-15T00:38:26;22.50;53.00
1175;DHT22;576;48.418;10.074;2023-04-15T00:40:54;22.40;53.00
1175;DHT22;576;48.418;10.074;2023-04-15T00:43:23;22.40;53.00
1175;DHT22;576;48.418;10.074;2023-04-15T00:45:52;22.40;53.00
1175;DHT22;576;48.418;10.074;2023-04-15T00:48:23;22.40;53.00
1175;DHT22;576;48.418;10.074;2023-04-15T00:50:52;22.40;53.00
1175;DHT22;576;48.418;10.074;2023-04-15T00:53:20;22.40;53.00
1175;DHT22;576;48.418;10.074;2023-04-15T00:55:48;22.40;53.00
1175;DHT22;576;48.418;10.074;2023-04-15T00:58:17;22.40;53.00
1175;DHT22;576;48.418;10.074;2023-04-15T01:00:46;22.40;53.00
1175;DHT22;576;48.418;10.074;2023-04-15T01:03:15;22.40;53.00
1175;DHT22;576;48.418;10.074;2023-04-15T01:05:45;22.40;53.10
1175;DHT22;576;48.418;10.074;2023-04-15T01:08:13;22.40;53.10
1175;DHT22;576;48.418;10.074;2023-04-15T01:10:41;22.40;53.10
1175;DHT22;576;48.418;10.074;2023-04-15T01:13:10;22.40;53.10
1175;DHT22;576;48.418;10.074;2023-04-15T01:15:39;22.40;53.10
1175;DHT22;576;48.418;10.074;2023-04-15T01:18:07;22.40;53.10
1175;DHT22;576;48.418;10.074;2023-04-15T01:20:36;22.40;53.10
1175;DHT22;576;48.418;10.074;2023-04-15T01:23:06;22.30;53.10
1175;DHT22;576;48.418;10.074;2023-04-15T01:25:36;22.30;53.10
1175;DHT22;576;48.418;10.074;2023-04-15T01:28:04;22.30;53.10
1175;DHT22;576;48.418;10.074;2023-04-15T01:30:33;22.30;53.10
1175;DHT22;576;48.418;10.074;2023-04-15T01:33:02;22.30;53.10
1175;DHT22;576;48.418;10.074;2023-04-15T01:35:30;22.30;53.10
1175;DHT22;576;48.418;10.074;2023-04-15T01:38:04;22.30;53.10
1175;DHT22;576;48.418;10.074;2023-04-15T01:40:33;22.30;53.10
1175;DHT22;576;48.418;10.074;2023-04-15T01:43:02;22.30;53.10
1175;DHT22;576;48.418;10.074;2023-04-15T01:45:31;22.30;53.10
1175;DHT22;576;48.418;10.074;2023-04-15T01:47:59;22.30;53.10
1175;DHT22;576;48.418;10.074;2023-04-15T01:50:27;22.30;53.10
1175;DHT22;576;48.418;10.074;2023-04-15T01:52:56;22.20;53.10
1175;DHT22;576;48.418;10.074;2023-04-15T01:55:24;22.20;53.10
1175;DHT22;576;48.418;10.074;2023-04-15T01:57:52;22.20;53.20
1175;DHT22;576;48.418;10.074;2023-04-15T02:00:22;22.20;53.10
1175;DHT22;576;48.418;10.074;2023-04-15T02:02:51;22.20;53.20
1175;DHT22;576;48.418;10.074;2023-04-15T02:05:19;22.20;53.20
1175;DHT22;576;48.418;10.074;2023-04-15T02:07:47;22.20;53.20
1175;DHT22;576;48.418;10.074;2023-04-15T02:10:16;22.20;53.20
1175;DHT22;576;48.418;10.074;2023-04-15T02:12:44;22.20;53.20
1175;DHT22;576;48.418;10.074;2023-04-15T02:15:12;22.20;53.20
1175;DHT22;576;48.418;10.074;2023-04-15T02:17:42;22.20;53.20
1175;DHT22;576;48.418;10.074;2023-04-15T02:20:18;22.20;53.20
1175;DHT22;576;48.418;10.074;2023-04-15T02:22:47;22.20;53.20
1175;DHT22;576;48.418;10.074;2023-04-15T02:25:15;22.10;53.20
1175;DHT22;576;48.418;10.074;2023-04-15T02:27:43;22.10;53.20
1175;DHT22;576;48.418;10.074;2023-04-15T02:30:12;22.10;53.20
1175;DHT22;576;48.418;10.074;2023-04-15T02:32:42;22.10;53.20
1175;DHT22;576;48.418;10.074;2023-04-15T02:35:11;22.10;53.20
1175;DHT22;576;48.418;10.074;2023-04-15T02:37:39;22.10;53.30
1175;DHT22;576;48.418;10.074;2023-04-15T02:40:11;22.10;53.30
1175;DHT22;576;48.418;10.074;2023-04-15T02:42:39;22.10;53.30
1175;DHT22;576;48.418;10.074;2023-04-15T02:45:11;22.10;53.30
1175;DHT22;576;48.418;10.074;2023-04-15T02:47:41;22.10;53.30
1175;DHT22;576;48.418;10.074;2023-04-15T02:50:12;22.10;53.30
1175;DHT22;576;48.418;10.074;2023-04-15T02:52:42;22.10;53.30
1175;DHT22;576;48.418;10.074;2023-04-15T02:55:10;22.10;53.30
1175;DHT22;576;48.418;10.074;2023-04-15T02:57:39;22.10;53.30
1175;DHT22;576;48.418;10.074;2023-04-15T03:00:10;22.10;53.30
1175;DHT22;576;48.418;10.074;2023-04-15T03:02:43;22.00;53.30
1175;DHT22;576;48.418;10.074;2023-04-15T03:05:12;22.00;53.30
1175;DHT22;576;48.418;10.074;2023-04-15T03:07:47;22.00;53.30
1175;DHT22;576;48.418;10.074;2023-04-15T03:10:15;22.00;53.30
1175;DHT22;576;48.418;10.074;2023-04-15T03:12:45;22.00;53.30
1175;DHT22;576;48.418;10.074;2023-04-15T03:15:17;22.00;53.30
1175;DHT22;576;48.418;10.074;2023-04-15T03:17:49;22.00;53.30
1175;DHT22;576;48.418;10.074;2023-04-15T03:20:18;22.00;53.30
1175;DHT22;576;48.418;10.074;2023-04-15T03:22:47;22.00;53.30
1175;DHT22;576;48.418;10.074;2023-04-15T03:25:17;22.00;53.30
1175;DHT22;576;48.418;10.074;2023-04-15T03:27:45;22.00;53.30
1175;DHT22;576;48.418;10.074;2023-04-15T03:30:14;22.00;53.40
1175;DHT22;576;48.418;10.074;2023-04-15T03:32:42;22.00;53.40
1175;DHT22;576;48.418;10.074;2023-04-15T03:35:12;22.00;53.40
1175;DHT22;576;48.418;10.074;2023-04-15T03:37:40;22.00;53.40
1175;DHT22;576;48.418;10.074;2023-04-15T03:40:09;21.90;53.40
1175;DHT22;576;48.418;10.074;2023-04-15T03:42:37;21.90;53.40
1175;DHT22;576;48.418;10.074;2023-04-15T03:45:06;21.90;53.50
1175;DHT22;576;48.418;10.074;2023-04-15T03:47:34;21.90;53.50
1175;DHT22;576;48.418;10.074;2023-04-15T03:50:03;21.90;53.50
1175;DHT22;576;48.418;10.074;2023-04-15T03:52:32;21.90;53.50
1175;DHT22;576;48.418;10.074;2023-04-15T03:55:00;22.00;53.50
1175;DHT22;576;48.418;10.074;2023-04-15T03:57:29;22.00;53.50
1175;DHT22;576;48.418;10.074;2023-04-15T03:59:57;22.00;53.50
1175;DHT22;576;48.418;10.074;2023-04-15T04:02:25;22.10;53.50
1175;DHT22;576;48.418;10.074;2023-04-15T04:04:54;22.10;53.50
1175;DHT22;576;48.418;10.074;2023-04-15T04:07:22;22.20;53.40
1175;DHT22;576;48.418;10.074;2023-04-15T04:09:52;22.20;53.40
1175;DHT22;576;48.418;10.074;2023-04-15T04:12:20;22.30;53.30
1175;DHT22;576;48.418;10.074;2023-04-15T04:14:48;22.40;53.30
1175;DHT22;576;48.418;10.074;2023-04-15T04:17:17;22.40;53.20
1175;DHT22;576;48.418;10.074;2023-04-15T04:19:45;22.50;53.20
1175;DHT22;576;48.418;10.074;2023-04-15T04:22:13;22.60;53.10
1175;DHT22;576;48.418;10.074;2023-04-15T04:24:41;22.60;52.90
1175;DHT22;576;48.418;10.074;2023-04-15T04:27:11;22.70;52.80
1175;DHT22;576;48.418;10.074;2023-04-15T04:29:39;22.80;52.70
1175;DHT22;576;48.418;10.074;2023-04-15T04:32:07;22.80;52.70
1175;DHT22;576;48.418;10.074;2023-04-15T04:34:35;22.80;52.60
1175;DHT22;576;48.418;10.074;2023-04-15T04:37:04;22.80;52.60
1175;DHT22;576;48.418;10.074;2023-04-15T04:39:32;22.80;52.60
1175;DHT22;576;48.418;10.074;2023-04-15T04:42:00;22.80;52.50
1175;DHT22;576;48.418;10.074;2023-04-15T04:44:30;22.70;52.60
1175;DHT22;576;48.418;10.074;2023-04-15T04:46:58;22.70;52.60
1175;DHT22;576;48.418;10.074;2023-04-15T04:49:26;22.70;52.60
1175;DHT22;576;48.418;10.074;2023-04-15T04:51:55;22.70;52.70
1175;DHT22;576;48.418;10.074;2023-04-15T04:54:24;22.60;52.70
1175;DHT22;576;48.418;10.074;2023-04-15T04:56:53;22.60;52.80
1175;DHT22;576;48.418;10.074;2023-04-15T04:59:21;22.50;52.80
1175;DHT22;576;48.418;10.074;2023-04-15T05:01:51;22.50;52.90
1175;DHT22;576;48.418;10.074;2023-04-15T05:04:19;22.50;52.90
1175;DHT22;576;48.418;10.074;2023-04-15T05:06:47;22.50;52.90
1175;DHT22;576;48.418;10.074;2023-04-15T05:09:15;22.40;53.00
1175;DHT22;576;48.418;10.074;2023-04-15T05:11:43;22.40;53.10
1175;DHT22;576;48.418;10.074;2023-04-15T05:14:11;22.40;53.10
1175;DHT22;576;48.418;10.074;2023-04-15T05:16:40;22.30;53.10
1175;DHT22;576;48.418;10.074;2023-04-15T05:19:09;22.30;53.20
1175;DHT22;576;48.418;10.074;2023-04-15T05:21:37;22.30;53.20
1175;DHT22;576;48.418;10.074;2023-04-15T05:24:06;22.20;53.30
1175;DHT22;576;48.418;10.074;2023-04-15T05:26:34;22.20;53.30
1175;DHT22;576;48.418;10.074;2023-04-15T05:29:02;22.20;53.30
1175;DHT22;576;48.418;10.074;2023-04-15T05:31:31;22.20;53.30
1175;DHT22;576;48.418;10.074;2023-04-15T05:33:59;22.20;53.30
1175;DHT22;576;48.418;10.074;2023-04-15T05:36:29;22.20;53.40
1175;DHT22;576;48.418;10.074;2023-04-15T05:38:57;22.20;53.40
1175;DHT22;576;48.418;10.074;2023-04-15T05:41:25;22.20;53.40
1175;DHT22;576;48.418;10.074;2023-04-15T05:43:54;22.20;53.40
1175;DHT22;576;48.418;10.074;2023-04-15T05:46:22;22.20;53.40
1175;DHT22;576;48.418;10.074;2023-04-15T05:48:50;22.30;53.30
1175;DHT22;576;48.418;10.074;2023-04-15T05:51:21;22.30;53.30
1175;DHT22;576;48.418;10.074;2023-04-15T05:53:50;22.30;53.30
1175;DHT22;576;48.418;10.074;2023-04-15T05:56:18;22.30;53.20
1175;DHT22;576;48.418;10.074;2023-04-15T05:58:47;22.40;53.20
1175;DHT22;576;48.418;10.074;2023-04-15T06:01:17;22.40;53.20
1175;DHT22;576;48.418;10.074;2023-04-15T06:03:45;22.40;53.20
1175;DHT22;576;48.418;10.074;2023-04-15T06:06:14;22.40;53.10
1175;DHT22;576;48.418;10.074;2023-04-15T06:08:43;22.40;53.10
1175;DHT22;576;48.418;10.074;2023-04-15T06:11:12;22.40;53.10
1175;DHT22;576;48.418;10.074;2023-04-15T06:13:40;22.40;53.10
1175;DHT22;576;48.418;10.074;2023-04-15T06:16:08;22.40;53.10
1175;DHT22;576;48.418;10.074;2023-04-15T06:18:37;22.40;53.10
1175;DHT22;576;48.418;10.074;2023-04-15T06:21:06;22.40;53.10
1175;DHT22;576;48.418;10.074;2023-04-15T06:23:34;22.40;53.10
1175;DHT22;576;48.418;10.074;2023-04-15T06:26:02;22.40;53.10
1175;DHT22;576;48.418;10.074;2023-04-15T06:28:32;22.40;53.10
1175;DHT22;576;48.418;10.074;2023-04-15T06:31:00;22.40;53.10
1175;DHT22;576;48.418;10.074;2023-04-15T06:33:28;22.40;53.10
1175;DHT22;576;48.418;10.074;2023-04-15T06:35:58;22.40;53.10
1175;DHT22;576;48.418;10.074;2023-04-15T06:38:26;22.40;53.10
1175;DHT22;576;48.418;10.074;2023-04-15T06:40:54;22.40;53.10
1175;DHT22;576;48.418;10.074;2023-04-15T06:43:22;22.40;53.10
1175;DHT22;576;48.418;10.074;2023-04-15T06:45:52;22.40;53.10
1175;DHT22;576;48.418;10.074;2023-04-15T06:48:21;22.40;53.10
1175;DHT22;576;48.418;10.074;2023-04-15T06:50:49;22.40;53.10
1175;DHT22;576;48.418;10.074;2023-04-15T06:53:18;22.40;53.00
1175;DHT22;576;48.418;10.074;2023-04-15T06:55:46;22.40;53.10
1175;DHT22;576;48.418;10.074;2023-04-15T06:58:14;22.40;53.00
1175;DHT22;576;48.418;10.074;2023-04-15T07:00:43;22.40;53.00
1175;DHT22;576;48.418;10.074;2023-04-15T07:03:12;22.40;53.00
1175;DHT22;576;48.418;10.074;2023-04-15T07:05:41;22.50;52.70
1175;DHT22;576;48.418;10.074;2023-04-15T07:08:09;22.50;52.90
1175;DHT22;576;48.418;10.074;2023-04-15T07:10:38;22.50;52.80
1175;DHT22;576;48.418;10.074;2023-04-15T07:13:06;22.50;52.80
1175;DHT22;576;48.418;10.074;2023-04-15T07:15:34;22.60;52.90
1175;DHT22;576;48.418;10.074;2023-04-15T07:18:03;22.60;52.80
1175;DHT22;576;48.418;10.074;2023-04-15T07:20:32;22.60;52.70
1175;DHT22;576;48.418;10.074;2023-04-15T07:23:00;22.60;52.50
1175;DHT22;576;48.418;10.074;2023-04-15T07:25:29;22.60;52.50
1175;DHT22;576;48.418;10.074;2023-04-15T07:27:57;22.60;52.50
1175;DHT22;576;48.418;10.074;2023-04-15T07:30:25;22.60;52.70
1175;DHT22;576;48.418;10.074;2023-04-15T07:32:55;22.50;52.70
1175;DHT22;576;48.418;10.074;2023-04-15T07:35:26;22.50;52.80
1175;DHT22;576;48.418;10.074;2023-04-15T07:37:57;22.50;52.80
1175;DHT22;576;48.418;10.074;2023-04-15T07:40:25;22.50;52.80
1175;DHT22;576;48.418;10.074;2023-04-15T07:42:55;22.50;52.70
1175;DHT22;576;48.418;10.074;2023-04-15T07:45:24;22.50;52.80
1175;DHT22;576;48.418;10.074;2023-04-15T07:47:53;22.50;52.60
1175;DHT22;576;48.418;10.074;2023-04-15T07:50:22;22.50;52.80
1175;DHT22;576;48.418;10.074;2023-04-15T07:52:51;22.50;52.80
1175;DHT22;576;48.418;10.074;2023-04-15T07:55:21;22.50;52.90
1175;DHT22;576;48.418;10.074;2023-04-15T07:57:49;22.50;52.90
1175;DHT22;576;48.418;10.074;2023-04-15T08:00:18;22.50;52.90
1175;DHT22;576;48.418;10.074;2023-04-15T08:02:46;22.50;52.90
1175;DHT22;576;48.418;10.074;2023-04-15T08:05:15;22.50;52.80
1175;DHT22;576;48.418;10.074;2023-04-15T08:07:44;22.50;52.80
1175;DHT22;576;48.418;10.074;2023-04-15T08:10:14;22.50;52.80
1175;DHT22;576;48.418;10.074;2023-04-15T08:12:43;22.50;52.80
1175;DHT22;576;48.418;10.074;2023-04-15T08:15:14;22.50;52.80
1175;DHT22;576;48.418;10.074;2023-04-15T08:17:43;22.50;53.00
1175;DHT22;576;48.418;10.074;2023-04-15T08:20:12;22.50;53.00
1175;DHT22;576;48.418;10.074;2023-04-15T08:22:40;22.60;53.00
1175;DHT22;576;48.418;10.074;2023-04-15T08:25:09;22.60;53.00
1175;DHT22;576;48.418;10.074;2023-04-15T08:27:37;22.60;52.90
1175;DHT22;576;48.418;10.074;2023-04-15T08:30:08;22.60;52.90
1175;DHT22;576;48.418;10.074;2023-04-15T08:32:36;22.60;52.90
1175;DHT22;576;48.418;10.074;2023-04-15T08:35:05;22.70;53.00
1175;DHT22;576;48.418;10.074;2023-04-15T08:37:33;22.70;52.90
1175;DHT22;576;48.418;10.074;2023-04-15T08:40:02;22.70;53.00
1175;DHT22;576;48.418;10.074;2023-04-15T08:42:31;22.70;53.00
1175;DHT22;576;48.418;10.074;2023-04-15T08:45:03;22.70;53.00
1175;DHT22;576;48.418;10.074;2023-04-15T08:47:34;22.70;53.00
1175;DHT22;576;48.418;10.074;2023-04-15T08:50:08;22.70;53.10
1175;DHT22;576;48.418;10.074;2023-04-15T08:52:38;22.70;53.30
1175;DHT22;576;48.418;10.074;2023-04-15T08:55:08;22.80;53.50
1175;DHT22;576;48.418;10.074;2023-04-15T08:57:37;22.70;53.60
1175;DHT22;576;48.418;10.074;2023-04-15T09:00:07;22.80;53.60
1175;DHT22;576;48.418;10.074;2023-04-15T09:02:38;22.80;53.60
1175;DHT22;576;48.418;10.074;2023-04-15T09:05:07;22.80;53.60
1175;DHT22;576;48.418;10.074;2023-04-15T09:07:35;22.80;53.60
1175;DHT22;576;48.418;10.074;2023-04-15T09:10:04;22.80;53.70
1175;DHT22;576;48.418;10.074;2023-04-15T09:12:34;22.80;53.80
1175;DHT22;576;48.418;10.074;2023-04-15T09:15:03;22.80;53.90
1175;DHT22;576;48.418;10.074;2023-04-15T09:17:32;22.80;53.90
1175;DHT22;576;48.418;10.074;2023-04-15T09:20:11;22.80;53.90
1175;DHT22;576;48.418;10.074;2023-04-15T09:22:41;22.80;53.90
1175;DHT22;576;48.418;10.074;2023-04-15T09:25:29;22.80;53.90
1175;DHT22;576;48.418;10.074;2023-04-15T09:28:01;22.80;54.00
1175;DHT22;576;48.418;10.074;2023-04-15T09:30:30;22.80;54.00
1175;DHT22;576;48.418;10.074;2023-04-15T09:33:00;22.80;54.00
1175;DHT22;576;48.418;10.074;2023-04-15T09:35:32;22.80;54.10
1175;DHT22;576;48.418;10.074;2023-04-15T09:38:03;22.80;54.10
1175;DHT22;576;48.418;10.074;2023-04-15T09:40:35;22.80;54.00
1175;DHT22;576;48.418;10.074;2023-04-15T09:43:05;22.80;54.00
1175;DHT22;576;48.418;10.074;2023-04-15T09:45:35;22.80;54.00
1175;DHT22;576;48.418;10.074;2023-04-15T09:48:16;22.90;54.00
1175;DHT22;576;48.418;10.074;2023-04-15T09:50:46;22.90;54.00
1175;DHT22;576;48.418;10.074;2023-04-15T09:53:16;22.90;53.90
1175;DHT22;576;48.418;10.074;2023-04-15T09:55:48;22.90;53.90
1175;DHT22;576;48.418;10.074;2023-04-15T09:58:18;22.90;53.90
1175;DHT22;576;48.418;10.074;2023-04-15T10:00:47;22.90;54.00
1175;DHT22;576;48.418;10.074;2023-04-15T10:03:19;22.90;54.00
1175;DHT22;576;48.418;10.074;2023-04-15T10:05:51;22.90;54.00
1175;DHT22;576;48.418;10.074;2023-04-15T10:08:21;22.90;54.10
1175;DHT22;576;48.418;10.074;2023-04-15T10:10:50;22.90;54.10
1175;DHT22;576;48.418;10.074;2023-04-15T10:13:20;22.90;54.20
1175;DHT22;576;48.418;10.074;2023-04-15T10:15:56;22.90;54.20
1175;DHT22;576;48.418;10.074;2023-04-15T10:18:26;22.90;54.20
1175;DHT22;576;48.418;10.074;2023-04-15T10:20:56;22.90;54.20
1175;DHT22;576;48.418;10.074;2023-04-15T10:23:24;23.00;54.30
1175;DHT22;576;48.418;10.074;2023-04-15T10:25:53;23.00;54.20
1175;DHT22;576;48.418;10.074;2023-04-15T10:28:22;23.00;54.20
1175;DHT22;576;48.418;10.074;2023-04-15T10:30:51;23.10;54.20
1175;DHT22;576;48.418;10.074;2023-04-15T10:33:22;23.10;54.30
1175;DHT22;576;48.418;10.074;2023-04-15T10:35:54;23.10;54.30
1175;DHT22;576;48.418;10.074;2023-04-15T10:38:36;23.10;54.20
1175;DHT22;576;48.418;10.074;2023-04-15T10:41:14;23.10;54.30
1175;DHT22;576;48.418;10.074;2023-04-15T10:43:50;23.10;54.30
1175;DHT22;576;48.418;10.074;2023-04-15T10:46:22;23.20;54.30
1175;DHT22;576;48.418;10.074;2023-04-15T10:48:52;23.20;54.20
1175;DHT22;576;48.418;10.074;2023-04-15T10:51:29;23.20;54.20
1175;DHT22;576;48.418;10.074;2023-04-15T10:53:59;23.20;54.30
1175;DHT22;576;48.418;10.074;2023-04-15T10:56:28;23.20;54.40
1175;DHT22;576;48.418;10.074;2023-04-15T10:58:58;23.20;54.50
1175;DHT22;576;48.418;10.074;2023-04-15T11:01:50;23.30;54.40
1175;DHT22;576;48.418;10.074;2023-04-15T11:04:50;23.30;54.30
1175;DHT22;576;48.418;10.074;2023-04-15T11:07:35;23.30;54.20
1175;DHT22;576;48.418;10.074;2023-04-15T11:13:19;23.30;54.10
1175;DHT22;576;48.418;10.074;2023-04-15T11:15:48;23.30;54.10
1175;DHT22;576;48.418;10.074;2023-04-15T11:18:19;23.40;54.10
1175;DHT22;576;48.418;10.074;2023-04-15T11:20:49;23.40;54.10
1175;DHT22;576;48.418;10.074;2023-04-15T11:23:19;23.40;54.10
1175;DHT22;576;48.418;10.074;2023-04-15T11:25:56;23.40;54.10
1175;DHT22;576;48.418;10.074;2023-04-15T11:28:26;23.40;54.10
1175;DHT22;576;48.418;10.074;2023-04-15T11:30:55;23.40;54.10
1175;DHT22;576;48.418;10.074;2023-04-15T11:33:23;23.40;54.00
1175;DHT22;576;48.418;10.074;2023-04-15T11:35:53;23.40;54.00
1175;DHT22;576;48.418;10.074;2023-04-15T11:38:21;23.40;54.00
1175;DHT22;576;48.418;10.074;2023-04-15T11:40:50;23.40;53.90
1175;DHT22;576;48.418;10.074;2023-04-15T11:43:21;23.40;53.90
1175;DHT22;576;48.418;10.074;2023-04-15T11:45:52;23.40;53.90
1175;DHT22;576;48.418;10.074;2023-04-15T11:48:23;23.30;53.90
1175;DHT22;576;48.418;10.074;2023-04-15T11:50:55;23.30;53.90
1175;DHT22;576;48.418;10.074;2023-04-15T11:53:35;23.30;53.90
1175;DHT22;576;48.418;10.074;2023-04-15T11:56:06;23.30;54.00
1175;DHT22;576;48.418;10.074;2023-04-15T11:58:38;23.30;54.00
1175;DHT22;576;48.418;10.074;2023-04-15T12:01:07;23.20;54.00
1175;DHT22;576;48.418;10.074;2023-04-15T12:03:37;23.20;54.00
1175;DHT22;576;48.418;10.074;2023-04-15T12:06:15;23.20;54.10
1175;DHT22;576;48.418;10.074;2023-04-15T12:08:50;23.20;54.10
1175;DHT22;576;48.418;10.074;2023-04-15T12:11:19;23.30;54.10
1175;DHT22;576;48.418;10.074;2023-04-15T12:13:52;23.30;54.00
1175;DHT22;576;48.418;10.074;2023-04-15T12:16:21;23.30;54.00
1175;DHT22;576;48.418;10.074;2023-04-15T12:18:50;23.30;54.00
1175;DHT22;576;48.418;10.074;2023-04-15T12:21:22;23.30;54.00
1175;DHT22;576;48.418;10.074;2023-04-15T12:23:52;23.40;54.70
1175;DHT22;576;48.418;10.074;2023-04-15T12:26:25;23.40;54.70
1175;DHT22;576;48.418;10.074;2023-04-15T12:28:59;23.40;54.50
1175;DHT22;576;48.418;10.074;2023-04-15T12:31:28;23.30;55.00
1175;DHT22;576;48.418;10.074;2023-04-15T12:33:56;23.40;55.60
1175;DHT22;576;48.418;10.074;2023-04-15T12:36:28;23.40;56.20
1175;DHT22;576;48.418;10.074;2023-04-15T12:39:03;23.30;56.30
1175;DHT22;576;48.418;10.074;2023-04-15T12:41:32;23.30;56.10
1175;DHT22;576;48.418;10.074;2023-04-15T12:44:02;23.40;55.90
1175;DHT22;576;48.418;10.074;2023-04-15T12:46:31;23.30;55.80
1175;DHT22;576;48.418;10.074;2023-04-15T12:49:00;23.40;55.70
1175;DHT22;576;48.418;10.074;2023-04-15T12:51:29;23.30;55.60
1175;DHT22;576;48.418;10.074;2023-04-15T12:53:58;23.30;55.50
1175;DHT22;576;48.418;10.074;2023-04-15T12:56:26;23.30;55.40
1175;DHT22;576;48.418;10.074;2023-04-15T12:58:55;23.30;55.50
1175;DHT22;576;48.418;10.074;2023-04-15T13:01:24;23.30;55.40
1175;DHT22;576;48.418;10.074;2023-04-15T13:03:53;23.30;55.30
1175;DHT22;576;48.418;10.074;2023-04-15T13:06:21;23.30;55.30
1175;DHT22;576;48.418;10.074;2023-04-15T13:08:50;23.20;55.30
1175;DHT22;576;48.418;10.074;2023-04-15T13:11:24;23.20;55.30
1175;DHT22;576;48.418;10.074;2023-04-15T13:13:52;23.20;55.30
1175;DHT22;576;48.418;10.074;2023-04-15T13:16:22;23.20;55.20
1175;DHT22;576;48.418;10.074;2023-04-15T13:18:51;23.20;55.20
1175;DHT22;576;48.418;10.074;2023-04-15T13:21:20;23.20;55.10
1175;DHT22;576;48.418;10.074;2023-04-15T13:23:48;23.20;55.10
1175;DHT22;576;48.418;10.074;2023-04-15T13:26:17;23.20;55.10
1175;DHT22;576;48.418;10.074;2023-04-15T13:28:45;23.10;55.10
1175;DHT22;576;48.418;10.074;2023-04-15T13:31:13;23.10;55.10
1175;DHT22;576;48.418;10.074;2023-04-15T13:33:42;23.10;55.00
1175;DHT22;576;48.418;10.074;2023-04-15T13:36:11;23.10;55.00
1175;DHT22;576;48.418;10.074;2023-04-15T13:38:39;23.10;55.00
1175;DHT22;576;48.418;10.074;2023-04-15T13:41:07;23.10;55.00
1175;DHT22;576;48.418;10.074;2023-04-15T13:43:36;23.10;55.10
1175;DHT22;576;48.418;10.074;2023-04-15T13:46:04;23.10;55.10
1175;DHT22;576;48.418;10.074;2023-04-15T13:48:32;23.00;55.10
1175;DHT22;576;48.418;10.074;2023-04-15T13:51:01;23.00;55.10
1175;DHT22;576;48.418;10.074;2023-04-15T13:53:30;23.00;55.10
1175;DHT22;576;48.418;10.074;2023-04-15T13:56:05;23.00;55.10
1175;DHT22;576;48.418;10.074;2023-04-15T13:58:34;23.00;55.10
1175;DHT22;576;48.418;10.074;2023-04-15T14:01:02;23.00;55.20
1175;DHT22;576;48.418;10.074;2023-04-15T14:03:33;23.00;55.20
1175;DHT22;576;48.418;10.074;2023-04-15T14:06:02;23.00;55.20
1175;DHT22;576;48.418;10.074;2023-04-15T14:08:32;23.00;55.20
1175;DHT22;576;48.418;10.074;2023-04-15T14:11:00;23.00;55.20
1175;DHT22;576;48.418;10.074;2023-04-15T14:13:29;23.00;55.20
1175;DHT22;576;48.418;10.074;2023-04-15T14:15:57;23.00;55.20
1175;DHT22;576;48.418;10.074;2023-04-15T14:18:25;23.00;55.20
1175;DHT22;576;48.418;10.074;2023-04-15T14:20:53;23.10;55.20
1175;DHT22;576;48.418;10.074;2023-04-15T14:23:22;23.10;55.20
1175;DHT22;576;48.418;10.074;2023-04-15T14:25:52;23.10;55.20
1175;DHT22;576;48.418;10.074;2023-04-15T14:28:20;23.10;55.30
1175;DHT22;576;48.418;10.074;2023-04-15T14:30:48;23.10;55.30
1175;DHT22;576;48.418;10.074;2023-04-15T14:33:17;23.10;55.30
1175;DHT22;576;48.418;10.074;2023-04-15T14:35:45;23.00;55.30
1175;DHT22;576;48.418;10.074;2023-04-15T14:38:13;23.00;55.40
1175;DHT22;576;48.418;10.074;2023-04-15T14:40:41;23.00;55.30
1175;DHT22;576;48.418;10.074;2023-04-15T14:43:11;23.00;55.40
1175;DHT22;576;48.418;10.074;2023-04-15T14:45:40;23.00;55.40
1175;DHT22;576;48.418;10.074;2023-04-15T14:48:11;22.90;55.40
1175;DHT22;576;48.418;10.074;2023-04-15T14:50:40;22.90;55.40
1175;DHT22;576;48.418;10.074;2023-04-15T14:53:08;22.90;55.40
1175;DHT22;576;48.418;10.074;2023-04-15T14:55:36;22.90;55.40
1175;DHT22;576;48.418;10.074;2023-04-15T14:58:05;22.90;55.50
1175;DHT22;576;48.418;10.074;2023-04-15T15:00:35;22.90;55.60
1175;DHT22;576;48.418;10.074;2023-04-15T15:03:06;22.90;55.50
1175;DHT22;576;48.418;10.074;2023-04-15T15:05:40;22.90;55.60
1175;DHT22;576;48.418;10.074;2023-04-15T15:08:09;22.90;55.60
1175;DHT22;576;48.418;10.074;2023-04-15T15:10:38;22.80;55.60
1175;DHT22;576;48.418;10.074;2023-04-15T15:13:16;22.80;55.60
1175;DHT22;576;48.418;10.074;2023-04-15T15:15:45;22.80;55.70
1175;DHT22;576;48.418;10.074;2023-04-15T15:18:15;22.80;55.60
1175;DHT22;576;48.418;10.074;2023-04-15T15:20:45;22.80;55.60
1175;DHT22;576;48.418;10.074;2023-04-15T15:23:13;22.80;55.60
1175;DHT22;576;48.418;10.074;2023-04-15T15:25:42;22.80;55.60
1175;DHT22;576;48.418;10.074;2023-04-15T15:28:10;22.80;55.60
1175;DHT22;576;48.418;10.074;2023-04-15T15:30:39;22.80;55.60
1175;DHT22;576;48.418;10.074;2023-04-15T15:33:08;22.80;55.60
1175;DHT22;576;48.418;10.074;2023-04-15T15:35:36;22.80;55.60
1175;DHT22;576;48.418;10.074;2023-04-15T15:38:05;22.80;55.70
1175;DHT22;576;48.418;10.074;2023-04-15T15:40:35;22.80;55.80
1175;DHT22;576;48.418;10.074;2023-04-15T15:43:04;22.80;55.80
1175;DHT22;576;48.418;10.074;2023-04-15T15:45:32;22.80;55.90
1175;DHT22;576;48.418;10.074;2023-04-15T15:48:00;22.90;55.90
1175;DHT22;576;48.418;10.074;2023-04-15T15:50:30;22.90;55.90
1175;DHT22;576;48.418;10.074;2023-04-15T15:52:58;22.90;55.80
1175;DHT22;576;48.418;10.074;2023-04-15T15:55:27;22.90;55.80
1175;DHT22;576;48.418;10.074;2023-04-15T15:57:56;22.90;55.80
1175;DHT22;576;48.418;10.074;2023-04-15T16:00:24;22.90;55.80
1175;DHT22;576;48.418;10.074;2023-04-15T16:02:54;22.90;55.90
1175;DHT22;576;48.418;10.074;2023-04-15T16:05:26;22.90;55.90
1175;DHT22;576;48.418;10.074;2023-04-15T16:07:56;22.90;56.00
1175;DHT22;576;48.418;10.074;2023-04-15T16:10:24;22.80;56.10
1175;DHT22;576;48.418;10.074;2023-04-15T16:12:53;22.80;56.10
1175;DHT22;576;48.418;10.074;2023-04-15T16:15:21;22.80;56.20
1175;DHT22;576;48.418;10.074;2023-04-15T16:17:49;22.80;56.20
1175;DHT22;576;48.418;10.074;2023-04-15T16:20:18;22.80;56.20